createdAt,value
2022-07-26T00:01:47.841Z,18.40
2022-07-26T00:04:15.342Z,18.30
2022-07-26T00:06:42.864Z,18.30
2022-07-26T00:09:11.762Z,18.30
2022-07-26T00:11:39.377Z,18.30
2022-07-26T00:14:08.076Z,18.30
2022-07-26T00:16:36.406Z,18.30
2022-07-26T00:19:05.179Z,18.30
2022-07-26T00:21:33.204Z,18.30
2022-07-26T00:24:00.845Z,18.20
2022-07-26T00:26:28.234Z,18.20
2022-07-26T00:28:55.678Z,18.20
2022-07-26T00:31:23.230Z,18.20
2022-07-26T00:33:56.984Z,18.10
2022-07-26T00:36:26.134Z,18.30
2022-07-26T00:38:53.557Z,18.10
2022-07-26T00:41:20.853Z,18.00
2022-07-26T00:43:59.044Z,17.90
2022-07-26T00:46:31.939Z,18.00
2022-07-26T00:48:59.429Z,17.90
2022-07-26T00:51:53.294Z,17.80
2022-07-26T00:54:21.292Z,17.90
2022-07-26T00:56:55.170Z,18.00
2022-07-26T00:59:22.743Z,17.90
2022-07-26T01:01:50.365Z,18.00
2022-07-26T01:04:17.761Z,18.10
2022-07-26T01:06:45.303Z,18.10
2022-07-26T01:09:17.037Z,18.10
2022-07-26T01:11:47.608Z,18.10
2022-07-26T01:14:15.187Z,18.20
2022-07-26T01:16:44.016Z,18.10
2022-07-26T01:19:11.328Z,18.10
2022-07-26T01:21:38.772Z,18.10
2022-07-26T01:24:07.057Z,18.10
2022-07-26T01:26:40.133Z,18.10
2022-07-26T01:29:10.530Z,17.20
2022-07-26T01:31:38.059Z,18.10
2022-07-26T01:34:05.756Z,18.10
2022-07-26T01:36:33.520Z,18.10
2022-07-26T01:39:00.841Z,18.00
2022-07-26T01:41:38.282Z,18.00
2022-07-26T01:44:08.349Z,18.10
2022-07-26T01:46:36.039Z,18.00
2022-07-26T01:49:04.149Z,18.00
2022-07-26T01:51:39.702Z,18.00
2022-07-26T01:54:07.909Z,18.00
2022-07-26T01:56:35.641Z,18.10
2022-07-26T01:59:03.506Z,18.10
2022-07-26T02:01:37.918Z,18.00
2022-07-26T02:04:08.544Z,18.00
2022-07-26T02:06:37.312Z,18.00
2022-07-26T02:09:06.490Z,18.00
2022-07-26T02:11:34.989Z,18.10
2022-07-26T02:14:03.416Z,18.10
2022-07-26T02:16:30.801Z,18.00
2022-07-26T02:18:58.254Z,18.00
2022-07-26T02:21:25.584Z,18.10
2022-07-26T02:23:52.926Z,18.10
2022-07-26T02:26:20.270Z,18.10
2022-07-26T02:28:48.809Z,18.10
2022-07-26T02:31:16.265Z,18.10
2022-07-26T02:33:44.048Z,18.00
2022-07-26T02:36:11.367Z,18.00
2022-07-26T02:38:38.814Z,18.00
2022-07-26T02:41:06.426Z,18.00
2022-07-26T02:43:33.839Z,18.00
2022-07-26T02:46:02.482Z,17.90
2022-07-26T02:48:32.946Z,18.00
2022-07-26T02:51:00.539Z,18.00
2022-07-26T02:53:28.208Z,17.90
2022-07-26T02:55:55.561Z,18.00
2022-07-26T02:58:25.079Z,18.00
2022-07-26T03:00:52.560Z,18.00
2022-07-26T03:03:19.874Z,18.00
2022-07-26T03:05:47.231Z,18.00
2022-07-26T03:08:14.508Z,18.00
2022-07-26T03:10:41.803Z,18.00
2022-07-26T03:13:09.138Z,18.60
2022-07-26T03:15:36.629Z,18.00
2022-07-26T03:18:04.355Z,18.00
2022-07-26T03:20:31.798Z,18.00
2022-07-26T03:22:59.089Z,17.90
2022-07-26T03:25:26.430Z,17.90
2022-07-26T03:27:59.312Z,17.80
2022-07-26T03:30:26.781Z,17.90
2022-07-26T03:32:54.460Z,17.90
2022-07-26T03:35:21.948Z,17.90
2022-07-26T03:37:49.311Z,17.90
2022-07-26T03:40:17.542Z,17.90
2022-07-26T03:42:46.594Z,17.80
2022-07-26T03:45:14.997Z,17.70
2022-07-26T03:47:43.417Z,17.70
2022-07-26T03:50:11.739Z,17.70
2022-07-26T03:52:39.386Z,17.60
2022-07-26T03:55:26.268Z,17.60
2022-07-26T03:57:53.688Z,17.40
2022-07-26T04:00:21.037Z,17.40
2022-07-26T04:02:48.391Z,17.40
2022-07-26T04:05:16.079Z,17.40
2022-07-26T04:07:53.118Z,17.40
2022-07-26T04:10:22.358Z,17.40
2022-07-26T04:12:50.357Z,17.40
2022-07-26T04:15:19.237Z,17.40
2022-07-26T04:17:48.552Z,17.30
2022-07-26T04:20:16.156Z,17.40
2022-07-26T04:22:43.640Z,17.80
2022-07-26T04:25:11.031Z,17.40
2022-07-26T04:27:38.685Z,17.30
2022-07-26T04:30:12.368Z,17.60
2022-07-26T04:32:43.232Z,17.40
2022-07-26T04:35:13.348Z,17.40
2022-07-26T04:37:42.898Z,17.40
2022-07-26T04:40:13.074Z,17.40
2022-07-26T04:42:40.524Z,17.30
2022-07-26T04:45:08.910Z,17.30
2022-07-26T04:47:36.685Z,17.80
2022-07-26T04:50:04.819Z,17.40
2022-07-26T04:52:32.609Z,17.40
2022-07-26T04:55:01.417Z,17.40
2022-07-26T04:57:28.726Z,17.40
2022-07-26T05:00:10.138Z,17.00
2022-07-26T05:02:43.769Z,17.40
2022-07-26T05:05:11.246Z,17.40
2022-07-26T05:07:52.308Z,18.40
2022-07-26T05:10:21.333Z,17.30
2022-07-26T05:12:49.100Z,17.30
2022-07-26T05:15:16.485Z,17.30
2022-07-26T05:17:44.079Z,17.30
2022-07-26T05:20:14.349Z,17.30
2022-07-26T05:22:42.565Z,17.30
2022-07-26T05:25:10.535Z,17.30
2022-07-26T05:27:39.145Z,17.30
2022-07-26T05:30:08.964Z,17.30
2022-07-26T05:32:36.603Z,17.40
2022-07-26T05:35:04.500Z,17.30
2022-07-26T05:37:31.901Z,17.30
2022-07-26T05:39:59.523Z,17.30
2022-07-26T05:42:27.198Z,17.30
2022-07-26T05:44:54.510Z,17.30
2022-07-26T05:47:23.429Z,17.20
2022-07-26T05:49:50.765Z,17.30
2022-07-26T05:52:18.134Z,17.30
2022-07-26T05:54:45.577Z,17.30
2022-07-26T05:57:12.873Z,17.30
2022-07-26T05:59:40.466Z,17.30
2022-07-26T06:02:08.570Z,17.40
2022-07-26T06:04:36.397Z,17.30
2022-07-26T06:07:04.072Z,17.30
2022-07-26T06:09:32.487Z,17.40
2022-07-26T06:11:59.823Z,17.40
2022-07-26T06:14:27.312Z,17.40
2022-07-26T06:16:55.729Z,17.50
2022-07-26T06:19:23.109Z,17.50
2022-07-26T06:21:50.436Z,17.60
2022-07-26T06:24:18.227Z,17.60
2022-07-26T06:26:46.641Z,17.60
2022-07-26T06:29:13.965Z,17.60
2022-07-26T06:31:41.362Z,17.70
2022-07-26T06:34:10.055Z,17.70
2022-07-26T06:36:37.747Z,17.80
2022-07-26T06:39:06.618Z,17.80
2022-07-26T06:41:40.716Z,17.80
2022-07-26T06:44:08.422Z,17.80
2022-07-26T06:46:36.314Z,17.90
2022-07-26T06:49:03.978Z,17.90
2022-07-26T06:51:33.247Z,18.00
2022-07-26T06:54:01.372Z,18.10
2022-07-26T06:56:28.712Z,18.10
2022-07-26T06:58:56.512Z,17.80
2022-07-26T07:01:57.496Z,18.10
2022-07-26T07:04:11.797Z,18.10
2022-07-26T07:06:39.604Z,18.10
2022-07-26T07:09:08.304Z,18.10
2022-07-26T07:11:36.377Z,18.10
2022-07-26T07:14:04.000Z,18.10
2022-07-26T07:16:31.624Z,18.10
2022-07-26T07:18:59.044Z,18.20
2022-07-26T07:21:27.391Z,18.10
2022-07-26T07:23:54.880Z,18.20
2022-07-26T07:26:24.232Z,18.20
2022-07-26T07:28:52.077Z,18.20
2022-07-26T07:31:25.806Z,18.20
2022-07-26T07:33:57.947Z,18.10
2022-07-26T07:36:25.246Z,18.20
2022-07-26T07:38:52.525Z,18.20
2022-07-26T07:41:19.890Z,18.50
2022-07-26T07:43:47.295Z,18.00
2022-07-26T07:46:14.824Z,17.90
2022-07-26T07:48:47.412Z,17.90
2022-07-26T07:51:15.141Z,18.00
2022-07-26T07:53:43.666Z,18.00
2022-07-26T07:56:25.064Z,18.00
2022-07-26T07:58:52.474Z,18.00
2022-07-26T08:01:19.942Z,18.10
2022-07-26T08:03:50.532Z,18.00
2022-07-26T08:06:18.358Z,18.00
2022-07-26T08:08:45.689Z,18.00
2022-07-26T08:11:16.289Z,18.10
2022-07-26T08:13:47.777Z,18.20
2022-07-26T08:16:15.588Z,18.20
2022-07-26T08:18:56.191Z,18.30
2022-07-26T08:21:28.076Z,18.30
2022-07-26T08:23:57.626Z,18.40
2022-07-26T08:26:25.173Z,18.50
2022-07-26T08:28:59.418Z,18.60
2022-07-26T08:31:28.773Z,18.60
2022-07-26T08:33:56.650Z,18.70
2022-07-26T08:36:26.229Z,18.70
2022-07-26T08:38:59.198Z,18.80
2022-07-26T08:41:26.467Z,18.80
2022-07-26T08:43:54.178Z,18.80
2022-07-26T08:46:27.368Z,18.70
2022-07-26T08:48:56.500Z,19.00
2022-07-26T08:51:25.157Z,19.00
2022-07-26T08:53:59.308Z,19.00
2022-07-26T08:56:31.481Z,19.00
2022-07-26T08:58:58.769Z,19.10
2022-07-26T09:01:27.147Z,19.10
2022-07-26T09:03:54.555Z,19.10
2022-07-26T09:06:26.323Z,19.20
2022-07-26T09:09:11.360Z,19.20
2022-07-26T09:11:39.051Z,19.30
2022-07-26T09:14:06.815Z,19.30
2022-07-26T09:16:39.327Z,19.30
2022-07-26T09:19:23.631Z,19.40
2022-07-26T09:21:55.158Z,19.40
2022-07-26T09:24:37.185Z,19.50
2022-07-26T09:27:07.005Z,19.60
2022-07-26T09:29:48.307Z,19.60
2022-07-26T09:32:18.494Z,19.50
2022-07-26T09:34:52.634Z,19.60
2022-07-26T09:37:35.039Z,19.70
2022-07-26T09:40:06.246Z,19.80
2022-07-26T09:42:35.617Z,20.00
2022-07-26T09:45:04.402Z,20.00
2022-07-26T09:47:39.706Z,20.20
2022-07-26T09:50:12.100Z,21.10
2022-07-26T09:52:39.629Z,20.10
2022-07-26T09:55:09.343Z,20.20
2022-07-26T09:57:37.317Z,20.00
2022-07-26T10:00:07.875Z,19.80
2022-07-26T10:02:35.409Z,19.90
2022-07-26T10:05:02.849Z,19.90
2022-07-26T10:07:30.444Z,19.90
2022-07-26T10:10:15.124Z,19.90
2022-07-26T10:12:45.475Z,19.90
2022-07-26T10:15:38.890Z,19.90
2022-07-26T10:18:08.460Z,19.90
2022-07-26T10:20:53.845Z,19.90
2022-07-26T10:23:41.814Z,19.90
2022-07-26T10:26:11.757Z,19.90
2022-07-26T10:28:40.889Z,19.90
2022-07-26T10:31:29.958Z,20.00
2022-07-26T10:33:58.794Z,20.00
2022-07-26T10:36:34.879Z,20.10
2022-07-26T10:39:16.390Z,20.10
2022-07-26T10:41:46.514Z,20.00
2022-07-26T10:44:28.368Z,20.10
2022-07-26T10:47:01.958Z,20.30
2022-07-26T10:49:45.312Z,20.10
2022-07-26T10:52:22.203Z,20.00
2022-07-26T10:55:03.526Z,19.90
2022-07-26T10:57:40.947Z,19.90
2022-07-26T11:00:14.682Z,20.00
2022-07-26T11:02:44.045Z,20.00
2022-07-26T11:05:14.997Z,20.10
2022-07-26T11:08:08.405Z,20.10
2022-07-26T11:10:37.088Z,20.10
2022-07-26T11:13:09.000Z,20.10
2022-07-26T11:15:40.375Z,20.10
2022-07-26T11:18:13.866Z,20.10
2022-07-26T11:20:43.082Z,20.10
2022-07-26T11:23:31.557Z,20.20
2022-07-26T11:26:04.699Z,20.30
2022-07-26T11:28:43.340Z,21.80
2022-07-26T11:31:14.437Z,20.40
2022-07-26T11:33:45.424Z,20.40
2022-07-26T11:36:13.003Z,20.40
2022-07-26T11:38:54.443Z,20.50
2022-07-26T11:41:34.213Z,20.70
2022-07-26T11:44:04.928Z,20.80
2022-07-26T11:46:40.421Z,21.00
2022-07-26T11:49:25.083Z,21.00
2022-07-26T11:52:00.697Z,20.90
2022-07-26T11:54:30.712Z,20.80
2022-07-26T11:57:03.683Z,21.10
2022-07-26T11:59:33.331Z,21.10
2022-07-26T12:02:02.554Z,21.00
2022-07-26T12:04:35.214Z,21.00
2022-07-26T12:07:08.385Z,21.10
2022-07-26T12:09:38.802Z,21.20
2022-07-26T12:12:18.764Z,21.20
2022-07-26T12:15:04.390Z,21.20
2022-07-26T12:17:34.909Z,21.30
2022-07-26T12:20:14.056Z,21.30
2022-07-26T12:22:52.490Z,21.30
2022-07-26T12:25:27.978Z,21.20
2022-07-26T12:27:55.380Z,21.30
2022-07-26T12:30:23.963Z,21.30
2022-07-26T12:32:55.389Z,21.40
2022-07-26T12:35:33.525Z,21.20
2022-07-26T12:38:01.866Z,21.10
2022-07-26T12:40:30.815Z,21.00
2022-07-26T12:43:02.423Z,20.90
2022-07-26T12:45:35.122Z,20.80
2022-07-26T12:48:07.194Z,20.70
2022-07-26T12:50:34.577Z,20.70
2022-07-26T12:53:07.225Z,20.70
2022-07-26T12:55:35.673Z,20.70
2022-07-26T12:58:03.129Z,20.70
2022-07-26T13:00:30.620Z,20.80
2022-07-26T13:02:58.291Z,20.90
2022-07-26T13:05:25.912Z,20.80
2022-07-26T13:07:53.411Z,20.80
2022-07-26T13:10:36.470Z,20.80
2022-07-26T13:13:05.050Z,20.90
2022-07-26T13:15:37.424Z,20.90
2022-07-26T13:18:07.390Z,20.90
2022-07-26T13:20:37.374Z,21.10
2022-07-26T13:23:04.792Z,20.80
2022-07-26T13:25:37.002Z,20.80
2022-07-26T13:28:08.232Z,20.70
2022-07-26T13:30:39.439Z,20.70
2022-07-26T13:33:07.197Z,20.80
2022-07-26T13:35:34.703Z,20.90
2022-07-26T13:38:02.184Z,20.90
2022-07-26T13:40:31.845Z,21.00
2022-07-26T13:43:00.205Z,21.10
2022-07-26T13:45:29.042Z,21.30
2022-07-26T13:48:00.156Z,21.40
2022-07-26T13:50:28.577Z,21.60
2022-07-26T13:52:57.141Z,21.70
2022-07-26T13:55:25.691Z,21.90
2022-07-26T13:57:56.691Z,22.00
2022-07-26T14:00:27.471Z,22.20
2022-07-26T14:02:57.098Z,22.20
2022-07-26T14:05:24.906Z,22.30
2022-07-26T14:07:52.848Z,22.20
2022-07-26T14:10:21.225Z,22.10
2022-07-26T14:12:48.995Z,22.00
2022-07-26T14:15:22.103Z,21.90
2022-07-26T14:17:51.621Z,21.90
2022-07-26T14:20:19.040Z,21.80
2022-07-26T14:22:47.444Z,21.90
2022-07-26T14:25:14.942Z,21.90
2022-07-26T14:27:42.254Z,22.10
2022-07-26T14:30:09.949Z,22.10
2022-07-26T14:32:37.441Z,22.20
2022-07-26T14:35:05.499Z,22.30
2022-07-26T14:37:42.198Z,22.30
2022-07-26T14:40:13.911Z,22.40
2022-07-26T14:42:42.253Z,22.40
2022-07-26T14:45:10.107Z,22.40
2022-07-26T14:47:37.719Z,22.40
2022-07-26T14:50:07.686Z,22.40
2022-07-26T14:52:43.979Z,22.30
2022-07-26T14:55:11.773Z,22.40
2022-07-26T14:57:40.352Z,22.50
2022-07-26T15:00:16.017Z,22.50
2022-07-26T15:02:46.580Z,22.20
2022-07-26T15:05:19.505Z,22.40
2022-07-26T15:07:49.218Z,22.40
2022-07-26T15:10:17.722Z,22.30
2022-07-26T15:12:47.143Z,22.40
2022-07-26T15:15:14.561Z,22.40
2022-07-26T15:17:41.920Z,22.50
2022-07-26T15:20:18.359Z,22.60
2022-07-26T15:22:52.777Z,22.70
2022-07-26T15:25:21.318Z,22.80
2022-07-26T15:27:48.993Z,22.80
2022-07-26T15:30:17.119Z,22.90
2022-07-26T15:32:46.506Z,22.90
2022-07-26T15:35:15.112Z,22.90
2022-07-26T15:37:43.844Z,23.00
2022-07-26T15:40:12.369Z,22.90
2022-07-26T15:42:42.543Z,22.90
2022-07-26T15:45:12.143Z,22.90
2022-07-26T15:48:03.138Z,22.90
2022-07-26T15:50:27.916Z,22.90
2022-07-26T15:52:55.252Z,22.90
2022-07-26T15:55:22.780Z,22.80
2022-07-26T15:57:50.265Z,22.80
2022-07-26T16:00:18.053Z,22.70
2022-07-26T16:02:45.453Z,22.70
2022-07-26T16:05:14.123Z,22.60
2022-07-26T16:07:42.002Z,22.60
2022-07-26T16:10:12.356Z,22.50
2022-07-26T16:12:41.281Z,22.40
2022-07-26T16:15:10.249Z,22.30
2022-07-26T16:17:37.773Z,22.20
2022-07-26T16:20:06.421Z,22.20
2022-07-26T16:22:33.744Z,22.20
2022-07-26T16:25:01.050Z,22.20
2022-07-26T16:27:28.474Z,22.20
2022-07-26T16:29:55.856Z,22.20
2022-07-26T16:32:23.209Z,22.20
2022-07-26T16:34:51.049Z,22.00
2022-07-26T16:37:18.542Z,22.00
2022-07-26T16:39:45.888Z,21.90
2022-07-26T16:42:13.232Z,21.80
2022-07-26T16:44:40.610Z,21.90
2022-07-26T16:47:08.025Z,21.80
2022-07-26T16:49:35.379Z,21.70
2022-07-26T16:52:02.750Z,21.70
2022-07-26T16:54:30.946Z,21.70
2022-07-26T16:56:58.579Z,21.70
2022-07-26T16:59:26.488Z,21.60
2022-07-26T17:01:53.847Z,21.60
2022-07-26T17:04:21.754Z,21.60
2022-07-26T17:07:14.570Z,21.50
2022-07-26T17:09:37.234Z,21.50
2022-07-26T17:12:06.793Z,21.40
2022-07-26T17:14:34.384Z,21.40
2022-07-26T17:17:01.810Z,21.30
2022-07-26T17:19:29.192Z,21.30
2022-07-26T17:21:56.539Z,21.30
2022-07-26T17:24:24.736Z,21.20
2022-07-26T17:26:52.072Z,21.20
2022-07-26T17:29:19.565Z,21.70
2022-07-26T17:31:46.844Z,21.20
2022-07-26T17:34:14.242Z,21.10
2022-07-26T17:36:43.077Z,21.10
2022-07-26T17:39:15.671Z,21.10
2022-07-26T17:41:49.103Z,21.20
2022-07-26T17:44:16.508Z,21.20
2022-07-26T17:46:43.991Z,21.30
2022-07-26T17:49:12.051Z,21.30
2022-07-26T17:51:40.386Z,21.30
2022-07-26T17:54:08.382Z,21.30
2022-07-26T17:56:35.750Z,21.30
2022-07-26T17:59:03.143Z,21.20
2022-07-26T18:01:30.537Z,21.20
2022-07-26T18:03:58.019Z,21.10
2022-07-26T18:06:25.569Z,21.10
2022-07-26T18:08:52.968Z,21.10
2022-07-26T18:11:20.367Z,21.00
2022-07-26T18:13:47.719Z,21.00
2022-07-26T18:16:15.145Z,20.90
2022-07-26T18:18:43.468Z,20.90
2022-07-26T18:21:10.906Z,20.90
2022-07-26T18:23:42.882Z,20.90
2022-07-26T18:26:24.262Z,20.90
2022-07-26T18:28:53.488Z,21.00
2022-07-26T18:31:21.217Z,20.90
2022-07-26T18:33:49.213Z,20.90
2022-07-26T18:36:16.865Z,20.80
2022-07-26T18:38:44.238Z,20.90
2022-07-26T18:41:14.006Z,21.20
2022-07-26T18:43:41.670Z,20.80
2022-07-26T18:46:09.359Z,20.70
2022-07-26T18:48:37.072Z,20.70
2022-07-26T18:51:09.084Z,20.60
2022-07-26T18:53:36.461Z,20.50
2022-07-26T18:56:04.927Z,20.50
2022-07-26T18:58:32.383Z,20.40
2022-07-26T19:00:59.695Z,20.40
2022-07-26T19:03:27.170Z,20.40
2022-07-26T19:05:54.607Z,20.30
2022-07-26T19:08:22.019Z,20.30
2022-07-26T19:10:49.310Z,20.20
2022-07-26T19:13:16.665Z,20.10
2022-07-26T19:15:44.085Z,20.10
2022-07-26T19:18:16.346Z,20.00
2022-07-26T19:20:44.690Z,20.00
2022-07-26T19:23:12.286Z,20.00
2022-07-26T19:25:42.059Z,19.90
2022-07-26T19:28:09.481Z,19.80
2022-07-26T19:30:37.016Z,19.80
2022-07-26T19:33:04.427Z,19.80
2022-07-26T19:35:31.878Z,20.20
2022-07-26T19:37:59.226Z,19.80
2022-07-26T19:40:26.772Z,19.60
2022-07-26T19:42:54.194Z,19.60
2022-07-26T19:45:21.541Z,19.60
2022-07-26T19:47:49.261Z,19.50
2022-07-26T19:50:16.607Z,19.50
2022-07-26T19:52:43.893Z,19.90
2022-07-26T19:55:11.525Z,19.40
2022-07-26T19:57:39.014Z,19.40
2022-07-26T20:00:08.327Z,19.30
2022-07-26T20:02:35.803Z,19.30
2022-07-26T20:05:03.701Z,19.20
2022-07-26T20:07:31.640Z,19.20
2022-07-26T20:09:59.004Z,19.20
2022-07-26T20:12:26.364Z,19.20
2022-07-26T20:14:53.690Z,19.10
2022-07-26T20:17:33.635Z,19.10
2022-07-26T20:20:08.301Z,19.10
2022-07-26T20:22:36.739Z,19.10
2022-07-26T20:25:04.887Z,19.00
2022-07-26T20:28:06.464Z,19.10
2022-07-26T20:30:38.827Z,19.00
2022-07-26T20:33:40.948Z,19.00
2022-07-26T20:36:16.164Z,19.00
2022-07-26T20:38:48.240Z,18.90
2022-07-26T20:41:18.758Z,19.00
2022-07-26T20:43:48.594Z,19.00
2022-07-26T20:46:16.152Z,18.90
2022-07-26T20:48:46.935Z,18.90
2022-07-26T20:51:14.362Z,18.80
2022-07-26T20:53:41.860Z,18.80
2022-07-26T20:56:10.377Z,18.70
2022-07-26T20:58:37.766Z,18.70
2022-07-26T21:01:05.726Z,18.20
2022-07-26T21:03:33.222Z,18.60
2022-07-26T21:06:00.640Z,18.60
2022-07-26T21:08:28.428Z,19.00
2022-07-26T21:10:55.811Z,18.60
2022-07-26T21:13:23.830Z,18.50
2022-07-26T21:15:53.378Z,18.50
2022-07-26T21:18:21.404Z,18.50
2022-07-26T21:20:50.238Z,18.50
2022-07-26T21:23:18.540Z,18.40
2022-07-26T21:25:49.411Z,18.40
2022-07-26T21:28:25.747Z,18.30
2022-07-26T21:30:53.113Z,18.30
2022-07-26T21:33:20.534Z,18.30
2022-07-26T21:35:50.797Z,18.20
2022-07-26T21:38:18.314Z,19.10
2022-07-26T21:40:46.279Z,18.20
2022-07-26T21:43:13.911Z,18.20
2022-07-26T21:45:41.380Z,18.20
2022-07-26T21:48:09.208Z,18.20
2022-07-26T21:50:36.672Z,18.10
2022-07-26T21:53:06.115Z,18.10
2022-07-26T21:55:33.501Z,18.10
2022-07-26T21:58:00.850Z,18.10
2022-07-26T22:00:28.176Z,18.00
2022-07-26T22:02:55.601Z,18.00
2022-07-26T22:05:35.062Z,17.90
2022-07-26T22:08:03.128Z,18.30
2022-07-26T22:10:30.395Z,17.90
2022-07-26T22:12:57.696Z,17.80
2022-07-26T22:15:25.128Z,17.80
2022-07-26T22:17:55.993Z,17.80
2022-07-26T22:20:23.368Z,17.80
2022-07-26T22:22:50.647Z,17.90
2022-07-26T22:25:17.926Z,17.90
2022-07-26T22:27:45.224Z,17.90
2022-07-26T22:30:12.749Z,17.90
2022-07-26T22:32:40.580Z,17.80
2022-07-26T22:35:08.323Z,17.80
2022-07-26T22:37:35.670Z,17.70
2022-07-26T22:40:03.090Z,17.70
2022-07-26T22:42:30.404Z,17.70
2022-07-26T22:44:57.768Z,17.70
2022-07-26T22:47:25.689Z,17.60
2022-07-26T22:49:56.124Z,17.60
2022-07-26T22:52:25.532Z,17.50
2022-07-26T22:54:53.183Z,17.50
2022-07-26T22:57:20.478Z,17.50
2022-07-26T22:59:48.219Z,17.40
2022-07-26T23:02:15.513Z,17.40
2022-07-26T23:04:42.911Z,17.30
2022-07-26T23:07:11.257Z,17.40
2022-07-26T23:09:40.273Z,17.40
2022-07-26T23:12:08.351Z,17.30
2022-07-26T23:14:35.816Z,17.30
2022-07-26T23:17:03.219Z,17.30
2022-07-26T23:19:30.650Z,17.30
2022-07-26T23:21:57.937Z,17.20
2022-07-26T23:24:25.371Z,17.20
2022-07-26T23:26:52.851Z,17.20
2022-07-26T23:29:20.111Z,17.20
2022-07-26T23:31:47.587Z,17.20
2022-07-26T23:34:15.130Z,17.30
2022-07-26T23:36:42.639Z,17.30
2022-07-26T23:39:10.448Z,17.30
2022-07-26T23:41:38.043Z,17.40
2022-07-26T23:44:06.078Z,17.40
2022-07-26T23:46:33.512Z,17.40
2022-07-26T23:49:01.052Z,17.40
2022-07-26T23:51:28.410Z,17.40
2022-07-26T23:53:55.958Z,17.40
2022-07-26T23:56:23.396Z,17.50
2022-07-26T23:58:51.011Z,17.50
